sensor_id;sensor_type;location;lat;lon;timestamp;temperature;humidity
981;DHT22;479;53.514;9.994;2023-06-04T00:02:07;13.00;99.90
981;DHT22;479;53.514;9.994;2023-06-04T00:04:56;13.00;99.90
981;DHT22;479;53.514;9.994;2023-06-04T00:07:24;13.00;99.90
981;DHT22;479;53.514;9.994;2023-06-04T00:09:55;12.90;99.90
981;DHT22;479;53.514;9.994;2023-06-04T00:12:22;12.90;99.90
981;DHT22;479;53.514;9.994;2023-06-04T00:14:49;12.80;99.90
981;DHT22;479;53.514;9.994;2023-06-04T00:17:19;12.70;99.90
981;DHT22;479;53.514;9.994;2023-06-04T00:19:45;12.70;99.90
981;DHT22;479;53.514;9.994;2023-06-04T00:22:13;12.70;99.90
981;DHT22;479;53.514;9.994;2023-06-04T00:24:40;12.70;99.90
981;DHT22;479;53.514;9.994;2023-06-04T00:27:09;12.70;99.90
981;DHT22;479;53.514;9.994;2023-06-04T00:29:39;12.70;99.90
981;DHT22;479;53.514;9.994;2023-06-04T00:32:07;12.70;99.90
981;DHT22;479;53.514;9.994;2023-06-04T00:34:39;12.80;99.90
981;DHT22;479;53.514;9.994;2023-06-04T00:37:07;13.00;99.90
981;DHT22;479;53.514;9.994;2023-06-04T00:39:36;13.20;99.90
981;DHT22;479;53.514;9.994;2023-06-04T00:42:04;13.40;99.90
981;DHT22;479;53.514;9.994;2023-06-04T00:44:32;13.50;99.90
981;DHT22;479;53.514;9.994;2023-06-04T00:46:59;13.60;99.90
981;DHT22;479;53.514;9.994;2023-06-04T00:49:27;13.70;99.90
981;DHT22;479;53.514;9.994;2023-06-04T00:51:56;13.60;99.90
981;DHT22;479;53.514;9.994;2023-06-04T00:54:24;13.70;99.90
981;DHT22;479;53.514;9.994;2023-06-04T00:56:52;13.80;99.90
981;DHT22;479;53.514;9.994;2023-06-04T00:59:19;13.90;99.90
981;DHT22;479;53.514;9.994;2023-06-04T01:01:51;13.90;99.90
981;DHT22;479;53.514;9.994;2023-06-04T01:04:25;13.70;99.90
981;DHT22;479;53.514;9.994;2023-06-04T01:06:56;13.50;99.90
981;DHT22;479;53.514;9.994;2023-06-04T01:09:25;13.50;99.90
981;DHT22;479;53.514;9.994;2023-06-04T01:11:52;13.40;99.90
981;DHT22;479;53.514;9.994;2023-06-04T01:14:20;13.20;99.90
981;DHT22;479;53.514;9.994;2023-06-04T01:16:56;13.10;99.90
981;DHT22;479;53.514;9.994;2023-06-04T01:19:57;12.90;99.90
981;DHT22;479;53.514;9.994;2023-06-04T01:22:42;12.70;99.90
981;DHT22;479;53.514;9.994;2023-06-04T01:25:14;12.60;99.90
981;DHT22;479;53.514;9.994;2023-06-04T01:27:48;12.50;99.90
981;DHT22;479;53.514;9.994;2023-06-04T01:30:17;12.40;99.90
981;DHT22;479;53.514;9.994;2023-06-04T01:32:46;12.40;99.90
981;DHT22;479;53.514;9.994;2023-06-04T01:35:13;12.30;99.90
981;DHT22;479;53.514;9.994;2023-06-04T01:37:40;12.20;99.90
981;DHT22;479;53.514;9.994;2023-06-04T01:40:08;12.20;99.90
981;DHT22;479;53.514;9.994;2023-06-04T01:42:38;12.20;99.90
981;DHT22;479;53.514;9.994;2023-06-04T01:45:06;12.10;99.90
981;DHT22;479;53.514;9.994;2023-06-04T01:47:33;12.00;99.90
981;DHT22;479;53.514;9.994;2023-06-04T01:50:04;12.00;99.90
981;DHT22;479;53.514;9.994;2023-06-04T01:52:35;12.00;99.90
981;DHT22;479;53.514;9.994;2023-06-04T01:55:02;12.00;99.90
981;DHT22;479;53.514;9.994;2023-06-04T01:57:30;12.00;99.90
981;DHT22;479;53.514;9.994;2023-06-04T01:59:57;12.00;99.90
981;DHT22;479;53.514;9.994;2023-06-04T02:02:24;12.00;99.90
981;DHT22;479;53.514;9.994;2023-06-04T02:04:51;12.00;99.90
981;DHT22;479;53.514;9.994;2023-06-04T02:07:20;11.90;99.90
981;DHT22;479;53.514;9.994;2023-06-04T02:09:51;11.90;99.90
981;DHT22;479;53.514;9.994;2023-06-04T02:12:18;11.90;99.90
981;DHT22;479;53.514;9.994;2023-06-04T02:14:45;11.80;99.90
981;DHT22;479;53.514;9.994;2023-06-04T02:17:12;11.80;99.90
981;DHT22;479;53.514;9.994;2023-06-04T02:19:42;11.70;99.90
981;DHT22;479;53.514;9.994;2023-06-04T02:22:10;11.70;99.90
981;DHT22;479;53.514;9.994;2023-06-04T02:24:39;11.60;99.90
981;DHT22;479;53.514;9.994;2023-06-04T02:27:08;11.70;99.90
981;DHT22;479;53.514;9.994;2023-06-04T02:29:36;11.70;99.90
981;DHT22;479;53.514;9.994;2023-06-04T02:32:03;11.90;99.90
981;DHT22;479;53.514;9.994;2023-06-04T02:34:32;11.70;99.90
981;DHT22;479;53.514;9.994;2023-06-04T02:37:00;11.60;99.90
981;DHT22;479;53.514;9.994;2023-06-04T02:39:27;11.60;99.90
981;DHT22;479;53.514;9.994;2023-06-04T02:41:55;11.60;99.90
981;DHT22;479;53.514;9.994;2023-06-04T02:44:22;11.50;99.90
981;DHT22;479;53.514;9.994;2023-06-04T02:46:50;11.50;99.90
981;DHT22;479;53.514;9.994;2023-06-04T02:49:20;11.50;99.90
981;DHT22;479;53.514;9.994;2023-06-04T02:51:47;11.40;99.90
981;DHT22;479;53.514;9.994;2023-06-04T02:54:14;11.40;99.90
981;DHT22;479;53.514;9.994;2023-06-04T02:56:42;11.40;99.90
981;DHT22;479;53.514;9.994;2023-06-04T02:59:15;11.30;99.90
981;DHT22;479;53.514;9.994;2023-06-04T03:01:42;11.30;99.90
981;DHT22;479;53.514;9.994;2023-06-04T03:04:11;11.40;99.90
981;DHT22;479;53.514;9.994;2023-06-04T03:06:41;11.30;99.90
981;DHT22;479;53.514;9.994;2023-06-04T03:09:10;11.30;99.90
981;DHT22;479;53.514;9.994;2023-06-04T03:11:38;11.40;99.90
981;DHT22;479;53.514;9.994;2023-06-04T03:14:08;11.40;99.90
981;DHT22;479;53.514;9.994;2023-06-04T03:16:37;11.40;99.90
981;DHT22;479;53.514;9.994;2023-06-04T03:19:05;11.40;99.90
981;DHT22;479;53.514;9.994;2023-06-04T03:21:32;11.40;99.90
981;DHT22;479;53.514;9.994;2023-06-04T03:24:00;11.30;99.90
981;DHT22;479;53.514;9.994;2023-06-04T03:26:27;11.30;99.90
981;DHT22;479;53.514;9.994;2023-06-04T03:28:54;11.30;99.90
981;DHT22;479;53.514;9.994;2023-06-04T03:31:21;11.30;99.90
981;DHT22;479;53.514;9.994;2023-06-04T03:33:50;11.30;99.90
981;DHT22;479;53.514;9.994;2023-06-04T03:36:17;11.30;99.90
981;DHT22;479;53.514;9.994;2023-06-04T03:38:45;11.30;99.90
981;DHT22;479;53.514;9.994;2023-06-04T03:41:12;11.30;99.90
981;DHT22;479;53.514;9.994;2023-06-04T03:43:41;11.30;99.90
981;DHT22;479;53.514;9.994;2023-06-04T03:46:10;11.40;99.90
981;DHT22;479;53.514;9.994;2023-06-04T03:48:37;11.40;99.90
981;DHT22;479;53.514;9.994;2023-06-04T03:51:06;11.30;99.90
981;DHT22;479;53.514;9.994;2023-06-04T03:53:34;11.40;99.90
981;DHT22;479;53.514;9.994;2023-06-04T03:56:01;11.40;99.90
981;DHT22;479;53.514;9.994;2023-06-04T03:58:29;11.50;99.90
981;DHT22;479;53.514;9.994;2023-06-04T04:00:57;11.50;99.90
981;DHT22;479;53.514;9.994;2023-06-04T04:03:24;11.60;99.90
981;DHT22;479;53.514;9.994;2023-06-04T04:05:58;11.60;99.90
981;DHT22;479;53.514;9.994;2023-06-04T04:08:27;11.60;99.90
981;DHT22;479;53.514;9.994;2023-06-04T04:10:57;11.60;99.90
981;DHT22;479;53.514;9.994;2023-06-04T04:13:24;11.60;99.90
981;DHT22;479;53.514;9.994;2023-06-04T04:15:51;11.70;99.90
981;DHT22;479;53.514;9.994;2023-06-04T04:18:19;11.70;99.90
981;DHT22;479;53.514;9.994;2023-06-04T04:20:47;11.80;99.90
981;DHT22;479;53.514;9.994;2023-06-04T04:23:14;11.80;99.90
981;DHT22;479;53.514;9.994;2023-06-04T04:25:46;11.90;99.90
981;DHT22;479;53.514;9.994;2023-06-04T04:28:13;12.00;99.90
981;DHT22;479;53.514;9.994;2023-06-04T04:30:40;12.10;99.90
981;DHT22;479;53.514;9.994;2023-06-04T04:33:09;12.20;99.90
981;DHT22;479;53.514;9.994;2023-06-04T04:35:42;12.30;99.90
981;DHT22;479;53.514;9.994;2023-06-04T04:38:10;12.40;99.90
981;DHT22;479;53.514;9.994;2023-06-04T04:40:46;12.40;99.90
981;DHT22;479;53.514;9.994;2023-06-04T04:43:14;12.60;99.90
981;DHT22;479;53.514;9.994;2023-06-04T04:45:41;12.60;99.90
981;DHT22;479;53.514;9.994;2023-06-04T04:48:10;12.60;99.90
981;DHT22;479;53.514;9.994;2023-06-04T04:50:37;12.70;99.90
981;DHT22;479;53.514;9.994;2023-06-04T04:53:04;12.80;99.90
981;DHT22;479;53.514;9.994;2023-06-04T04:55:33;13.10;99.90
981;DHT22;479;53.514;9.994;2023-06-04T04:58:01;13.30;99.90
981;DHT22;479;53.514;9.994;2023-06-04T05:00:29;13.40;99.90
981;DHT22;479;53.514;9.994;2023-06-04T05:02:57;13.30;99.90
981;DHT22;479;53.514;9.994;2023-06-04T05:05:24;13.30;99.90
981;DHT22;479;53.514;9.994;2023-06-04T05:07:51;13.30;99.90
981;DHT22;479;53.514;9.994;2023-06-04T05:10:22;13.30;99.90
981;DHT22;479;53.514;9.994;2023-06-04T05:12:53;13.40;99.90
981;DHT22;479;53.514;9.994;2023-06-04T05:15:25;13.60;99.90
981;DHT22;479;53.514;9.994;2023-06-04T05:17:54;13.70;99.90
981;DHT22;479;53.514;9.994;2023-06-04T05:20:22;13.70;99.90
981;DHT22;479;53.514;9.994;2023-06-04T05:22:49;13.40;99.90
981;DHT22;479;53.514;9.994;2023-06-04T05:25:18;13.30;99.90
981;DHT22;479;53.514;9.994;2023-06-04T05:27:45;13.30;99.90
981;DHT22;479;53.514;9.994;2023-06-04T05:30:15;13.40;99.90
981;DHT22;479;53.514;9.994;2023-06-04T05:32:44;13.50;99.90
981;DHT22;479;53.514;9.994;2023-06-04T05:35:15;13.50;99.90
981;DHT22;479;53.514;9.994;2023-06-04T05:37:43;13.50;99.90
981;DHT22;479;53.514;9.994;2023-06-04T05:40:12;13.60;99.90
981;DHT22;479;53.514;9.994;2023-06-04T05:42:41;13.60;99.90
981;DHT22;479;53.514;9.994;2023-06-04T05:45:09;13.70;99.90
981;DHT22;479;53.514;9.994;2023-06-04T05:47:37;13.90;99.90
981;DHT22;479;53.514;9.994;2023-06-04T05:50:07;14.00;99.90
981;DHT22;479;53.514;9.994;2023-06-04T05:52:34;14.20;99.90
981;DHT22;479;53.514;9.994;2023-06-04T05:55:05;14.50;99.90
981;DHT22;479;53.514;9.994;2023-06-04T05:57:35;14.80;99.90
981;DHT22;479;53.514;9.994;2023-06-04T06:00:02;15.00;99.90
981;DHT22;479;53.514;9.994;2023-06-04T06:02:40;15.00;99.90
981;DHT22;479;53.514;9.994;2023-06-04T06:05:18;14.70;99.90
981;DHT22;479;53.514;9.994;2023-06-04T06:07:45;15.00;99.90
981;DHT22;479;53.514;9.994;2023-06-04T06:10:13;15.00;99.90
981;DHT22;479;53.514;9.994;2023-06-04T06:12:41;15.10;99.90
981;DHT22;479;53.514;9.994;2023-06-04T06:15:09;15.20;99.90
981;DHT22;479;53.514;9.994;2023-06-04T06:17:38;15.30;99.90
981;DHT22;479;53.514;9.994;2023-06-04T06:20:06;15.30;99.90
981;DHT22;479;53.514;9.994;2023-06-04T06:22:35;15.30;99.90
981;DHT22;479;53.514;9.994;2023-06-04T06:25:03;15.50;99.90
981;DHT22;479;53.514;9.994;2023-06-04T06:27:32;15.50;99.90
981;DHT22;479;53.514;9.994;2023-06-04T06:30:00;15.60;99.90
981;DHT22;479;53.514;9.994;2023-06-04T06:32:27;15.60;99.90
981;DHT22;479;53.514;9.994;2023-06-04T06:34:54;15.70;99.90
981;DHT22;479;53.514;9.994;2023-06-04T06:37:21;15.70;99.90
981;DHT22;479;53.514;9.994;2023-06-04T06:39:49;15.80;99.90
981;DHT22;479;53.514;9.994;2023-06-04T06:42:16;16.00;99.90
981;DHT22;479;53.514;9.994;2023-06-04T06:44:45;16.10;99.90
981;DHT22;479;53.514;9.994;2023-06-04T06:47:12;16.10;99.90
981;DHT22;479;53.514;9.994;2023-06-04T06:52:06;16.30;99.90
981;DHT22;479;53.514;9.994;2023-06-04T06:54:33;16.30;99.90
981;DHT22;479;53.514;9.994;2023-06-04T06:57:02;16.20;99.90
981;DHT22;479;53.514;9.994;2023-06-04T06:59:34;16.20;99.90
981;DHT22;479;53.514;9.994;2023-06-04T07:02:02;16.40;99.90
981;DHT22;479;53.514;9.994;2023-06-04T07:04:29;16.80;99.90
981;DHT22;479;53.514;9.994;2023-06-04T07:06:55;16.90;99.90
981;DHT22;479;53.514;9.994;2023-06-04T07:09:22;17.00;99.90
981;DHT22;479;53.514;9.994;2023-06-04T07:11:49;16.80;99.90
981;DHT22;479;53.514;9.994;2023-06-04T07:14:17;17.00;99.90
981;DHT22;479;53.514;9.994;2023-06-04T07:16:44;16.90;99.90
981;DHT22;479;53.514;9.994;2023-06-04T07:19:11;16.90;99.90
981;DHT22;479;53.514;9.994;2023-06-04T07:21:38;17.00;99.90
981;DHT22;479;53.514;9.994;2023-06-04T07:24:05;17.30;99.90
981;DHT22;479;53.514;9.994;2023-06-04T07:26:32;17.20;99.90
981;DHT22;479;53.514;9.994;2023-06-04T07:28:59;17.30;99.90
981;DHT22;479;53.514;9.994;2023-06-04T07:31:27;17.10;99.90
981;DHT22;479;53.514;9.994;2023-06-04T07:33:54;17.30;99.90
981;DHT22;479;53.514;9.994;2023-06-04T07:36:21;17.60;99.90
981;DHT22;479;53.514;9.994;2023-06-04T07:38:48;17.60;98.80
981;DHT22;479;53.514;9.994;2023-06-04T07:41:15;17.50;99.90
981;DHT22;479;53.514;9.994;2023-06-04T07:43:43;17.60;99.80
981;DHT22;479;53.514;9.994;2023-06-04T07:46:10;17.90;99.30
981;DHT22;479;53.514;9.994;2023-06-04T07:48:41;18.20;97.80
981;DHT22;479;53.514;9.994;2023-06-04T07:51:09;18.30;97.70
981;DHT22;479;53.514;9.994;2023-06-04T07:53:37;18.30;97.40
981;DHT22;479;53.514;9.994;2023-06-04T07:56:05;18.30;96.60
981;DHT22;479;53.514;9.994;2023-06-04T07:58:32;18.50;96.90
981;DHT22;479;53.514;9.994;2023-06-04T08:00:59;18.60;96.00
981;DHT22;479;53.514;9.994;2023-06-04T08:03:26;18.90;95.70
981;DHT22;479;53.514;9.994;2023-06-04T08:05:54;18.80;94.70
981;DHT22;479;53.514;9.994;2023-06-04T08:08:21;18.90;94.50
981;DHT22;479;53.514;9.994;2023-06-04T08:10:48;18.60;93.30
981;DHT22;479;53.514;9.994;2023-06-04T08:13:15;18.40;93.90
981;DHT22;479;53.514;9.994;2023-06-04T08:15:43;18.60;93.00
981;DHT22;479;53.514;9.994;2023-06-04T08:18:30;18.70;93.40
981;DHT22;479;53.514;9.994;2023-06-04T08:21:10;19.30;93.30
981;DHT22;479;53.514;9.994;2023-06-04T08:23:48;19.70;92.60
981;DHT22;479;53.514;9.994;2023-06-04T08:26:34;20.00;90.80
981;DHT22;479;53.514;9.994;2023-06-04T08:29:08;20.20;86.90
981;DHT22;479;53.514;9.994;2023-06-04T08:31:36;20.00;86.60
981;DHT22;479;53.514;9.994;2023-06-04T08:34:17;20.40;84.80
981;DHT22;479;53.514;9.994;2023-06-04T08:36:46;20.40;83.00
981;DHT22;479;53.514;9.994;2023-06-04T08:39:13;20.30;82.40
981;DHT22;479;53.514;9.994;2023-06-04T08:41:43;20.60;78.90
981;DHT22;479;53.514;9.994;2023-06-04T08:44:11;20.80;77.20
981;DHT22;479;53.514;9.994;2023-06-04T08:46:38;21.20;76.40
981;DHT22;479;53.514;9.994;2023-06-04T08:49:07;21.40;73.70
981;DHT22;479;53.514;9.994;2023-06-04T08:51:36;22.00;71.60
981;DHT22;479;53.514;9.994;2023-06-04T08:54:06;22.50;65.50
981;DHT22;479;53.514;9.994;2023-06-04T08:56:33;22.00;62.50
981;DHT22;479;53.514;9.994;2023-06-04T08:59:03;21.20;62.20
981;DHT22;479;53.514;9.994;2023-06-04T09:01:31;21.70;63.40
981;DHT22;479;53.514;9.994;2023-06-04T09:04:01;22.90;62.40
981;DHT22;479;53.514;9.994;2023-06-04T09:06:29;23.80;57.40
981;DHT22;479;53.514;9.994;2023-06-04T09:08:57;24.00;54.30
981;DHT22;479;53.514;9.994;2023-06-04T09:11:32;23.90;52.40
981;DHT22;479;53.514;9.994;2023-06-04T09:14:01;24.40;50.90
981;DHT22;479;53.514;9.994;2023-06-04T09:16:30;24.00;50.10
981;DHT22;479;53.514;9.994;2023-06-04T09:19:02;24.60;50.20
981;DHT22;479;53.514;9.994;2023-06-04T09:21:29;24.80;48.10
981;DHT22;479;53.514;9.994;2023-06-04T09:23:57;24.00;45.50
981;DHT22;479;53.514;9.994;2023-06-04T09:26:26;24.30;46.80
981;DHT22;479;53.514;9.994;2023-06-04T09:28:55;24.80;44.50
981;DHT22;479;53.514;9.994;2023-06-04T09:31:23;25.10;44.10
981;DHT22;479;53.514;9.994;2023-06-04T09:33:52;25.10;42.50
981;DHT22;479;53.514;9.994;2023-06-04T09:36:19;25.30;42.60
981;DHT22;479;53.514;9.994;2023-06-04T09:38:47;25.60;41.30
981;DHT22;479;53.514;9.994;2023-06-04T09:41:18;25.40;40.40
981;DHT22;479;53.514;9.994;2023-06-04T09:43:47;24.00;41.40
981;DHT22;479;53.514;9.994;2023-06-04T09:46:16;24.20;42.60
981;DHT22;479;53.514;9.994;2023-06-04T09:48:44;24.60;42.50
981;DHT22;479;53.514;9.994;2023-06-04T09:51:14;24.60;41.60
981;DHT22;479;53.514;9.994;2023-06-04T09:53:53;25.00;41.90
981;DHT22;479;53.514;9.994;2023-06-04T09:56:21;25.60;41.30
981;DHT22;479;53.514;9.994;2023-06-04T09:58:49;25.20;40.50
981;DHT22;479;53.514;9.994;2023-06-04T10:01:18;25.50;39.40
981;DHT22;479;53.514;9.994;2023-06-04T10:03:47;25.40;39.40
981;DHT22;479;53.514;9.994;2023-06-04T10:06:15;25.30;39.00
981;DHT22;479;53.514;9.994;2023-06-04T10:08:42;25.20;39.40
981;DHT22;479;53.514;9.994;2023-06-04T10:11:11;25.00;39.20
981;DHT22;479;53.514;9.994;2023-06-04T10:13:45;24.80;38.50
981;DHT22;479;53.514;9.994;2023-06-04T10:16:13;24.90;38.90
981;DHT22;479;53.514;9.994;2023-06-04T10:18:41;25.40;37.90
981;DHT22;479;53.514;9.994;2023-06-04T10:21:10;25.40;38.50
981;DHT22;479;53.514;9.994;2023-06-04T10:23:40;25.40;37.30
981;DHT22;479;53.514;9.994;2023-06-04T10:26:07;25.50;38.30
981;DHT22;479;53.514;9.994;2023-06-04T10:28:35;25.80;36.30
981;DHT22;479;53.514;9.994;2023-06-04T10:31:02;25.10;36.10
981;DHT22;479;53.514;9.994;2023-06-04T10:33:29;24.80;38.00
981;DHT22;479;53.514;9.994;2023-06-04T10:35:58;25.30;37.60
981;DHT22;479;53.514;9.994;2023-06-04T10:38:24;25.10;38.00
981;DHT22;479;53.514;9.994;2023-06-04T10:40:52;25.70;36.90
981;DHT22;479;53.514;9.994;2023-06-04T10:43:19;26.10;36.30
981;DHT22;479;53.514;9.994;2023-06-04T10:45:47;26.20;36.00
981;DHT22;479;53.514;9.994;2023-06-04T10:48:14;25.60;35.60
981;DHT22;479;53.514;9.994;2023-06-04T10:50:51;25.70;35.90
981;DHT22;479;53.514;9.994;2023-06-04T10:53:20;25.90;36.40
981;DHT22;479;53.514;9.994;2023-06-04T10:55:49;25.80;35.30
981;DHT22;479;53.514;9.994;2023-06-04T10:58:16;25.40;35.20
981;DHT22;479;53.514;9.994;2023-06-04T11:00:46;24.90;37.00
981;DHT22;479;53.514;9.994;2023-06-04T11:03:15;24.80;37.10
981;DHT22;479;53.514;9.994;2023-06-04T11:05:44;24.40;37.60
981;DHT22;479;53.514;9.994;2023-06-04T11:08:11;25.00;38.00
981;DHT22;479;53.514;9.994;2023-06-04T11:10:43;25.00;36.80
981;DHT22;479;53.514;9.994;2023-06-04T11:13:10;25.10;38.00
981;DHT22;479;53.514;9.994;2023-06-04T11:15:38;24.80;37.20
981;DHT22;479;53.514;9.994;2023-06-04T11:18:05;24.60;38.40
981;DHT22;479;53.514;9.994;2023-06-04T11:20:33;24.40;38.10
981;DHT22;479;53.514;9.994;2023-06-04T11:23:00;24.10;38.20
981;DHT22;479;53.514;9.994;2023-06-04T11:25:29;24.00;38.40
981;DHT22;479;53.514;9.994;2023-06-04T11:28:00;24.00;38.60
981;DHT22;479;53.514;9.994;2023-06-04T11:30:28;24.60;38.50
981;DHT22;479;53.514;9.994;2023-06-04T11:33:02;24.50;38.30
981;DHT22;479;53.514;9.994;2023-06-04T11:35:31;23.70;39.10
981;DHT22;479;53.514;9.994;2023-06-04T11:37:58;23.80;39.80
981;DHT22;479;53.514;9.994;2023-06-04T11:40:26;24.20;39.80
981;DHT22;479;53.514;9.994;2023-06-04T11:42:53;24.00;38.90
981;DHT22;479;53.514;9.994;2023-06-04T11:45:22;24.10;38.90
981;DHT22;479;53.514;9.994;2023-06-04T11:47:51;23.90;39.30
981;DHT22;479;53.514;9.994;2023-06-04T11:50:18;23.50;39.90
981;DHT22;479;53.514;9.994;2023-06-04T11:52:47;23.70;39.90
981;DHT22;479;53.514;9.994;2023-06-04T11:55:15;23.50;39.30
981;DHT22;479;53.514;9.994;2023-06-04T11:57:43;23.40;39.70
981;DHT22;479;53.514;9.994;2023-06-04T12:00:11;23.40;40.00
981;DHT22;479;53.514;9.994;2023-06-04T12:02:49;23.50;39.80
981;DHT22;479;53.514;9.994;2023-06-04T12:05:18;23.20;40.50
981;DHT22;479;53.514;9.994;2023-06-04T12:07:46;23.30;41.40
981;DHT22;479;53.514;9.994;2023-06-04T12:10:16;23.60;40.40
981;DHT22;479;53.514;9.994;2023-06-04T12:12:43;23.80;40.60
981;DHT22;479;53.514;9.994;2023-06-04T12:15:10;24.00;40.40
981;DHT22;479;53.514;9.994;2023-06-04T12:17:37;24.10;40.60
981;DHT22;479;53.514;9.994;2023-06-04T12:20:07;23.80;40.70
981;DHT22;479;53.514;9.994;2023-06-04T12:22:44;23.60;40.40
981;DHT22;479;53.514;9.994;2023-06-04T12:25:12;23.70;40.40
981;DHT22;479;53.514;9.994;2023-06-04T12:27:49;23.70;41.30
981;DHT22;479;53.514;9.994;2023-06-04T12:30:17;23.70;40.50
981;DHT22;479;53.514;9.994;2023-06-04T12:32:43;23.40;40.10
981;DHT22;479;53.514;9.994;2023-06-04T12:35:12;23.70;40.70
981;DHT22;479;53.514;9.994;2023-06-04T12:37:39;23.40;40.40
981;DHT22;479;53.514;9.994;2023-06-04T12:40:07;23.30;40.80
981;DHT22;479;53.514;9.994;2023-06-04T12:42:34;23.50;40.70
981;DHT22;479;53.514;9.994;2023-06-04T12:45:01;23.40;40.50
981;DHT22;479;53.514;9.994;2023-06-04T12:47:28;23.20;40.90
981;DHT22;479;53.514;9.994;2023-06-04T12:49:55;23.10;41.00
981;DHT22;479;53.514;9.994;2023-06-04T12:52:23;23.00;41.50
981;DHT22;479;53.514;9.994;2023-06-04T12:54:50;23.00;41.20
981;DHT22;479;53.514;9.994;2023-06-04T12:57:17;23.10;41.50
981;DHT22;479;53.514;9.994;2023-06-04T12:59:44;23.20;42.00
981;DHT22;479;53.514;9.994;2023-06-04T13:02:11;23.30;41.20
981;DHT22;479;53.514;9.994;2023-06-04T13:04:38;23.00;40.70
981;DHT22;479;53.514;9.994;2023-06-04T13:07:07;23.00;40.80
981;DHT22;479;53.514;9.994;2023-06-04T13:09:35;22.80;41.40
981;DHT22;479;53.514;9.994;2023-06-04T13:12:02;22.80;40.90
981;DHT22;479;53.514;9.994;2023-06-04T13:14:30;22.70;41.20
981;DHT22;479;53.514;9.994;2023-06-04T13:16:58;23.00;42.10
981;DHT22;479;53.514;9.994;2023-06-04T13:19:25;23.10;41.20
981;DHT22;479;53.514;9.994;2023-06-04T13:21:53;23.10;40.90
981;DHT22;479;53.514;9.994;2023-06-04T13:24:20;23.10;41.00
981;DHT22;479;53.514;9.994;2023-06-04T13:26:48;23.10;41.20
981;DHT22;479;53.514;9.994;2023-06-04T13:29:15;22.80;40.40
981;DHT22;479;53.514;9.994;2023-06-04T13:31:47;22.80;40.90
981;DHT22;479;53.514;9.994;2023-06-04T13:34:14;22.50;40.20
981;DHT22;479;53.514;9.994;2023-06-04T13:36:41;22.60;41.70
981;DHT22;479;53.514;9.994;2023-06-04T13:39:08;22.80;41.90
981;DHT22;479;53.514;9.994;2023-06-04T13:41:35;22.60;40.30
981;DHT22;479;53.514;9.994;2023-06-04T13:44:03;22.60;40.80
981;DHT22;479;53.514;9.994;2023-06-04T13:46:30;22.40;40.00
981;DHT22;479;53.514;9.994;2023-06-04T13:48:57;22.30;40.50
981;DHT22;479;53.514;9.994;2023-06-04T13:51:24;22.50;41.40
981;DHT22;479;53.514;9.994;2023-06-04T13:53:51;22.80;41.40
981;DHT22;479;53.514;9.994;2023-06-04T13:56:19;22.60;41.10
981;DHT22;479;53.514;9.994;2023-06-04T13:58:46;22.70;40.90
981;DHT22;479;53.514;9.994;2023-06-04T14:01:14;22.70;40.30
981;DHT22;479;53.514;9.994;2023-06-04T14:03:43;22.60;40.20
981;DHT22;479;53.514;9.994;2023-06-04T14:06:12;22.30;40.90
981;DHT22;479;53.514;9.994;2023-06-04T14:08:38;22.50;41.00
981;DHT22;479;53.514;9.994;2023-06-04T14:11:05;22.70;41.40
981;DHT22;479;53.514;9.994;2023-06-04T14:13:32;22.40;40.80
981;DHT22;479;53.514;9.994;2023-06-04T14:15:59;22.60;41.60
981;DHT22;479;53.514;9.994;2023-06-04T14:18:27;22.40;40.60
981;DHT22;479;53.514;9.994;2023-06-04T14:20:54;22.40;41.50
981;DHT22;479;53.514;9.994;2023-06-04T14:23:21;22.60;41.70
981;DHT22;479;53.514;9.994;2023-06-04T14:25:48;22.60;41.00
981;DHT22;479;53.514;9.994;2023-06-04T14:28:15;22.50;40.80
981;DHT22;479;53.514;9.994;2023-06-04T14:30:43;22.60;41.10
981;DHT22;479;53.514;9.994;2023-06-04T14:33:10;22.60;40.90
981;DHT22;479;53.514;9.994;2023-06-04T14:35:39;22.50;40.70
981;DHT22;479;53.514;9.994;2023-06-04T14:38:11;22.40;40.50
981;DHT22;479;53.514;9.994;2023-06-04T14:40:38;22.10;41.20
981;DHT22;479;53.514;9.994;2023-06-04T14:43:05;22.20;41.60
981;DHT22;479;53.514;9.994;2023-06-04T14:45:32;22.10;41.00
981;DHT22;479;53.514;9.994;2023-06-04T14:47:59;21.90;41.20
981;DHT22;479;53.514;9.994;2023-06-04T14:50:26;22.10;43.50
981;DHT22;479;53.514;9.994;2023-06-04T14:52:54;22.00;41.80
981;DHT22;479;53.514;9.994;2023-06-04T14:55:21;21.90;41.90
981;DHT22;479;53.514;9.994;2023-06-04T14:57:49;22.00;42.00
981;DHT22;479;53.514;9.994;2023-06-04T15:00:16;22.00;42.00
981;DHT22;479;53.514;9.994;2023-06-04T15:02:43;21.90;42.70
981;DHT22;479;53.514;9.994;2023-06-04T15:05:10;22.10;43.10
981;DHT22;479;53.514;9.994;2023-06-04T15:07:37;22.10;44.00
981;DHT22;479;53.514;9.994;2023-06-04T15:10:07;22.20;43.90
981;DHT22;479;53.514;9.994;2023-06-04T15:12:34;22.20;43.40
981;DHT22;479;53.514;9.994;2023-06-04T15:15:05;22.20;43.60
981;DHT22;479;53.514;9.994;2023-06-04T15:17:32;22.20;44.00
981;DHT22;479;53.514;9.994;2023-06-04T15:19:59;22.10;43.40
981;DHT22;479;53.514;9.994;2023-06-04T15:22:33;21.80;44.00
981;DHT22;479;53.514;9.994;2023-06-04T15:25:00;21.90;45.30
981;DHT22;479;53.514;9.994;2023-06-04T15:27:29;22.00;45.10
981;DHT22;479;53.514;9.994;2023-06-04T15:29:55;22.00;44.80
981;DHT22;479;53.514;9.994;2023-06-04T15:32:22;22.10;44.90
981;DHT22;479;53.514;9.994;2023-06-04T15:34:50;22.10;44.70
981;DHT22;479;53.514;9.994;2023-06-04T15:37:17;22.00;45.20
981;DHT22;479;53.514;9.994;2023-06-04T15:39:45;22.10;45.60
981;DHT22;479;53.514;9.994;2023-06-04T15:42:15;21.90;44.80
981;DHT22;479;53.514;9.994;2023-06-04T15:44:43;21.80;45.90
981;DHT22;479;53.514;9.994;2023-06-04T15:47:11;21.90;46.00
981;DHT22;479;53.514;9.994;2023-06-04T15:49:38;21.90;45.80
981;DHT22;479;53.514;9.994;2023-06-04T15:52:06;21.80;45.70
981;DHT22;479;53.514;9.994;2023-06-04T15:54:33;21.90;45.60
981;DHT22;479;53.514;9.994;2023-06-04T15:57:01;21.90;45.50
981;DHT22;479;53.514;9.994;2023-06-04T15:59:29;21.90;45.90
981;DHT22;479;53.514;9.994;2023-06-04T16:01:58;22.00;46.00
981;DHT22;479;53.514;9.994;2023-06-04T16:04:25;21.90;46.00
981;DHT22;479;53.514;9.994;2023-06-04T16:06:52;21.80;46.80
981;DHT22;479;53.514;9.994;2023-06-04T16:09:19;21.70;46.60
981;DHT22;479;53.514;9.994;2023-06-04T16:11:46;21.60;47.60
981;DHT22;479;53.514;9.994;2023-06-04T16:14:13;21.60;48.90
981;DHT22;479;53.514;9.994;2023-06-04T16:16:41;21.60;48.40
981;DHT22;479;53.514;9.994;2023-06-04T16:19:09;21.60;48.60
981;DHT22;479;53.514;9.994;2023-06-04T16:21:36;21.40;48.70
981;DHT22;479;53.514;9.994;2023-06-04T16:24:03;21.30;49.10
981;DHT22;479;53.514;9.994;2023-06-04T16:26:31;21.40;50.00
981;DHT22;479;53.514;9.994;2023-06-04T16:28:58;21.40;49.90
981;DHT22;479;53.514;9.994;2023-06-04T16:31:25;21.40;49.50
981;DHT22;479;53.514;9.994;2023-06-04T16:33:52;21.20;48.90
981;DHT22;479;53.514;9.994;2023-06-04T16:36:21;21.20;49.50
981;DHT22;479;53.514;9.994;2023-06-04T16:38:48;21.20;49.30
981;DHT22;479;53.514;9.994;2023-06-04T16:41:14;21.20;49.90
981;DHT22;479;53.514;9.994;2023-06-04T16:43:41;21.20;50.00
981;DHT22;479;53.514;9.994;2023-06-04T16:46:08;21.10;49.60